Rockland, ME

6:00 PM EDT on September 21, 2017 (GMT -0400)
Knox County Regional

Weather History for KRKD - March, 2012

Change the Weather History Date:

Tuesday, March 27, 2012

  Actual Average Record
Temperature  
Mean Temperature 30 °F -  
Max Temperature 41 °F 41 °F 68 °F (1998)
Min Temperature 19 °F 28 °F 15 °F (2014)
Degree Days  
Heating Degree Days 35    
Moisture  
Dew Point 1 °F    
Average Humidity 32    
Maximum Humidity 49    
Minimum Humidity 16    
Precipitation  
Precipitation 0.00 in - - ()
Sea Level Pressure  
Sea Level Pressure 29.99 in    
Wind  
Wind Speed 13 mph (NNW)    
Max Wind Speed 17 mph    
Max Gust Speed 36 mph    
Visibility 10 miles    
Events      
Averages and records for this station are not official NWS values.
T = Trace of Precipitation, MM = Missing Value Source: NWS Daily Summary

Daily Weather History Graph

Daily Weather History Graph

Search for Another Location

Airport or City:

Trip Planner

Search our weather history database for the weather conditions in past years. The results will help you decide how hot, cold, wet, or windy it might be!

Date:

Astronomy

Mar. 27, 2012 Rise Set
Actual Time 6:25 AM EDT 6:57 PM EDT
Civil Twilight 5:57 AM EDT 7:26 PM EDT
Nautical Twilight 5:22 AM EDT 8:01 PM EDT
Astronomical Twilight 4:47 AM EDT 8:36 PM EDT
Moon 8:43 AM EDT (3/27) No Moon Set
Length of Visible Light 13h 29m
Length of Day
12h 31m
Waxing Crescent, 22% of the Moon is Illuminated
Mar 27
Waxing Crescent
Mar 30
First Quarter
Apr 6
Full
Apr 13
Last Quarter
Apr 21
New

Hourly Weather History & Observations

Time (EDT) Temp. Windchill Dew Point Humidity Pressure Visibility Wind Dir Wind Speed Gust Speed Precip Events Conditions
12:15 AM 26.6 °F 15.2 °F 6.8 °F 43% 29.89 in 10.0 mi NNW 13.8 mph 26.5 mph N/A   Partly Cloudy
12:35 AM 26.6 °F 14.3 °F 5.0 °F 40% 29.89 in 10.0 mi NNW 16.1 mph 24.2 mph N/A   Clear
12:55 AM 26.6 °F 16.8 °F 6.8 °F 43% 29.89 in 10.0 mi NNW 10.4 mph 24.2 mph N/A   Clear
1:15 AM 24.8 °F 12.4 °F 6.8 °F 46% 29.89 in 10.0 mi NW 15.0 mph 26.5 mph N/A   Partly Cloudy
1:35 AM 24.8 °F 12.9 °F 6.8 °F 46% 29.90 in 10.0 mi NNW 13.8 mph 24.2 mph N/A   Partly Cloudy
1:55 AM 24.8 °F 14.0 °F 6.8 °F 46% 29.90 in 10.0 mi NNW 11.5 mph 21.9 mph N/A   Scattered Clouds
2:15 AM 24.8 °F 13.4 °F 6.8 °F 46% 29.90 in 10.0 mi NNW 12.7 mph 23.0 mph N/A   Partly Cloudy
2:35 AM 24.8 °F 14.0 °F 6.8 °F 46% 29.91 in 10.0 mi NW 11.5 mph 20.7 mph N/A   Mostly Cloudy
2:55 AM 24.8 °F 14.0 °F 6.8 °F 46% 29.91 in 10.0 mi NNW 11.5 mph 20.7 mph N/A   Partly Cloudy
3:15 AM 24.8 °F 12.4 °F 5.0 °F 43% 29.91 in 10.0 mi NW 15.0 mph 27.6 mph N/A   Clear
3:35 AM 23.0 °F 12.4 °F 5.0 °F 46% 29.91 in 10.0 mi NNW 10.4 mph 21.9 mph N/A   Clear
3:55 AM 23.0 °F 13.1 °F 3.2 °F 43% 29.92 in 10.0 mi NNW 9.2 mph 23.0 mph N/A   Clear
4:15 AM 23.0 °F 11.1 °F 3.2 °F 43% 29.93 in 10.0 mi NNW 12.7 mph 18.4 mph N/A   Clear
4:35 AM 21.2 °F 11.7 °F 3.2 °F 46% 29.93 in 10.0 mi NNW 8.1 mph - N/A   Clear
4:55 AM 21.2 °F 10.9 °F 3.2 °F 46% 29.94 in 10.0 mi NW 9.2 mph 21.9 mph N/A   Clear
5:35 AM 21.2 °F 10.1 °F 3.2 °F 46% 29.96 in 10.0 mi NW 10.4 mph 23.0 mph N/A   Clear
5:55 AM 21.2 °F 8.3 °F 3.2 °F 46% 29.96 in 10.0 mi NW 13.8 mph 20.7 mph N/A   Clear
6:15 AM 21.2 °F 8.9 °F 3.2 °F 46% 29.97 in 10.0 mi NNW 12.7 mph 21.9 mph N/A   Clear
6:35 AM 19.4 °F 6.6 °F 3.2 °F 49% 29.98 in 10.0 mi NNW 12.7 mph 25.3 mph N/A   Clear
6:55 AM 19.4 °F 8.6 °F 3.2 °F 49% 29.99 in 10.0 mi NW 9.2 mph 21.9 mph N/A   Clear
7:15 AM 19.4 °F 4.5 °F 1.4 °F 46% 30.00 in 10.0 mi NW 17.3 mph 31.1 mph N/A   Clear
7:35 AM 21.2 °F 9.5 °F 3.2 °F 46% 30.01 in 10.0 mi NW 11.5 mph 26.5 mph N/A   Clear
7:55 AM 21.2 °F 7.8 °F 3.2 °F 46% 30.01 in 10.0 mi NW 15.0 mph 27.6 mph N/A   Clear
8:15 AM 21.2 °F 7.8 °F 3.2 °F 46% 30.01 in 10.0 mi NW 15.0 mph 35.7 mph N/A   Clear
8:35 AM 21.2 °F 8.9 °F 1.4 °F 42% 30.01 in 10.0 mi NNW 12.7 mph 25.3 mph N/A   Clear
8:55 AM 23.0 °F 11.7 °F 1.4 °F 39% 30.01 in 10.0 mi NW 11.5 mph 20.7 mph N/A   Clear
9:15 AM 24.8 °F 13.4 °F 1.4 °F 36% 30.02 in 10.0 mi NW 12.7 mph 23.0 mph N/A   Clear
9:35 AM 24.8 °F 14.6 °F 1.4 °F 36% 30.02 in 10.0 mi North 10.4 mph 24.2 mph N/A   Clear
9:55 AM 26.6 °F 17.5 °F 1.4 °F 34% 30.03 in 10.0 mi NNW 9.2 mph 24.2 mph N/A   Clear
10:15 AM 26.6 °F 19.1 °F 1.4 °F 34% 30.04 in 10.0 mi NNW 6.9 mph 18.4 mph N/A   Clear
10:35 AM 28.4 °F 19.1 °F 1.4 °F 31% 30.04 in 10.0 mi NNW 10.4 mph 27.6 mph N/A   Clear
10:55 AM 28.4 °F 19.7 °F 1.4 °F 31% 30.04 in 10.0 mi North 9.2 mph 20.7 mph N/A   Clear
11:15 AM 30.2 °F 20.8 °F 1.4 °F 29% 30.03 in 10.0 mi North 11.5 mph 26.5 mph N/A   Clear
11:35 AM 30.2 °F 18.9 °F -0.4 °F 27% 30.02 in 10.0 mi NNW 16.1 mph 24.2 mph N/A   Clear
11:55 AM 32.0 °F 22.1 °F -0.4 °F 25% 30.03 in 10.0 mi North 13.8 mph 26.5 mph N/A   Clear
12:15 PM 33.8 °F 25.3 °F -0.4 °F 23% 30.02 in 10.0 mi NW 11.5 mph 21.9 mph N/A   Clear
12:35 PM 33.8 °F 23.9 °F -0.4 °F 23% 30.02 in 10.0 mi NNW 15.0 mph 24.2 mph N/A   Clear
12:55 PM 35.6 °F 26.6 °F 1.4 °F 24% 30.02 in 10.0 mi NNW 13.8 mph 23.0 mph N/A   Clear
1:15 PM 35.6 °F 28.0 °F -2.2 °F 20% 30.02 in 10.0 mi NNW 10.4 mph 25.3 mph N/A   Clear
1:35 PM 37.4 °F 29.3 °F -2.2 °F 19% 30.02 in 10.0 mi NW 12.7 mph 28.8 mph N/A   Clear
1:55 PM 39.2 °F 30.2 °F -0.4 °F 19% 30.02 in 10.0 mi NW 17.3 mph 26.5 mph N/A   Clear
2:15 PM 37.4 °F 28.9 °F -2.2 °F 19% 30.02 in 10.0 mi NNW 13.8 mph 24.2 mph N/A   Clear
2:55 PM 39.2 °F 30.2 °F -2.2 °F 17% 30.03 in 10.0 mi NNW 17.3 mph 26.5 mph N/A   Clear
3:15 PM 39.2 °F 30.5 °F -4.0 °F 16% 30.03 in 10.0 mi NW 16.1 mph 26.5 mph N/A   Clear
3:35 PM 39.2 °F 31.6 °F -2.2 °F 17% 30.03 in 10.0 mi North 12.7 mph 26.5 mph N/A   Clear
3:55 PM 41.0 °F 33.1 °F -2.2 °F 16% 30.03 in 10.0 mi NW 15.0 mph 26.5 mph N/A   Clear
4:15 PM 41.0 °F 32.8 °F -2.2 °F 16% 30.03 in 10.0 mi NW 16.1 mph 26.5 mph N/A   Clear
4:35 PM 41.0 °F 36.4 °F -2.2 °F 16% 30.03 in 10.0 mi NNW 6.9 mph 20.7 mph N/A   Clear
4:55 PM 41.0 °F 33.9 °F -0.4 °F 18% 30.03 in 10.0 mi North 12.7 mph 26.5 mph N/A   Clear
5:35 PM 39.2 °F 32.0 °F -4.0 °F 16% 30.04 in 10.0 mi NNW 11.5 mph 20.7 mph N/A   Clear
5:55 PM 39.2 °F 31.6 °F -4.0 °F 16% 30.05 in 10.0 mi NW 12.7 mph 21.9 mph N/A   Clear
6:15 PM 39.2 °F 33.0 °F -4.0 °F 16% 30.05 in 10.0 mi NW 9.2 mph 16.1 mph N/A   Clear
6:35 PM 37.4 °F 30.8 °F -5.8 °F 16% 30.05 in 10.0 mi NNW 9.2 mph - N/A   Clear
6:55 PM 37.4 °F 30.8 °F -5.8 °F 16% 30.06 in 10.0 mi NNW 9.2 mph 19.6 mph N/A   Clear
7:15 PM 35.6 °F 27.1 °F -5.8 °F 17% 30.07 in 10.0 mi NW 12.7 mph 17.3 mph N/A   Clear
7:35 PM 35.6 °F 29.2 °F -4.0 °F 18% 30.08 in 10.0 mi NW 8.1 mph - N/A   Clear
7:55 PM 35.6 °F 29.9 °F -4.0 °F 18% 30.09 in 10.0 mi NW 6.9 mph - N/A   Clear
8:15 PM 33.8 °F 28.6 °F -2.2 °F 22% 30.11 in 10.0 mi NW 5.8 mph - N/A   Clear
8:35 PM 33.8 °F 28.6 °F -2.2 °F 22% 30.11 in 10.0 mi NW 5.8 mph - N/A   Clear
8:55 PM 33.8 °F 27.7 °F -2.2 °F 22% 30.12 in 10.0 mi West 6.9 mph - N/A   Clear
9:15 PM 33.8 °F 28.6 °F -0.4 °F 23% 30.11 in 10.0 mi NW 5.8 mph - N/A   Clear
9:35 PM 33.8 °F 30.8 °F -0.4 °F 23% 30.12 in 10.0 mi NW 3.5 mph - N/A   Clear
10:15 PM 33.8 °F 29.6 °F -0.4 °F 23% 30.12 in 10.0 mi WNW 4.6 mph - N/A   Clear
10:35 PM 32.0 °F 28.7 °F -0.4 °F 25% 30.12 in 10.0 mi WNW 3.5 mph - N/A   Clear
10:55 PM 32.0 °F 27.5 °F 1.4 °F 27% 30.12 in 10.0 mi West 4.6 mph - N/A   Clear
11:15 PM 30.2 °F 25.4 °F 3.2 °F 32% 30.12 in 10.0 mi West 4.6 mph - N/A   Clear
11:35 PM 30.2 °F 24.3 °F 6.8 °F 37% 30.12 in 10.0 mi West 5.8 mph - N/A   Clear
11:55 PM 32.0 °F 27.5 °F 1.4 °F 27% 30.11 in 10.0 mi WNW 4.6 mph - N/A   Clear